Time;durP1;ratioP1;P1;durP2;ratioP2;P2;SDS_P1;SDS_P2;PMS_P1;PMS_P2;Temp;Humidity;BMP_temperature;BMP_pressure;BME280_temperature;BME280_humidity;BME280_pressure;Samples;Min_cycle;Max_cycle;Signal;HPM_P1;HPM_P2
2023/10/15 00:00:31;;;;;;;1.10;1.10;;;21.50;75.50;;;;;;5068913;28;43469;-72
2023/10/15 00:02:59;;;;;;;1.10;1.10;;;21.50;75.40;;;;;;5069370;28;43422;-71
2023/10/15 00:05:29;;;;;;;1.00;1.00;;;21.50;75.60;;;;;;5069662;28;44253;-71
2023/10/15 00:07:57;;;;;;;1.30;1.30;;;21.40;75.90;;;;;;5064276;28;43591;-72
2023/10/15 00:10:26;;;;;;;1.07;1.07;;;21.40;76.40;;;;;;5068139;28;43501;-71
2023/10/15 00:12:55;;;;;;;1.10;1.10;;;21.30;76.30;;;;;;5067932;28;44173;-71
2023/10/15 00:15:25;;;;;;;1.20;1.10;;;21.30;76.30;;;;;;5067768;28;43379;-71
2023/10/15 00:17:54;;;;;;;0.90;0.90;;;21.20;76.40;;;;;;5069127;28;43681;-72
2023/10/15 00:20:26;;;;;;;1.20;1.20;;;21.20;76.60;;;;;;5069177;28;43482;-71
2023/10/15 00:22:55;;;;;;;1.10;1.10;;;21.20;76.90;;;;;;5069195;28;43482;-72
2023/10/15 00:25:24;;;;;;;1.20;1.20;;;21.10;76.80;;;;;;5085475;28;43446;-70
2023/10/15 00:27:54;;;;;;;1.00;1.00;;;21.20;76.70;;;;;;5090685;28;43715;-70
2023/10/15 00:30:23;;;;;;;1.10;1.10;;;21.20;76.60;;;;;;5087421;28;43437;-69
2023/10/15 00:32:52;;;;;;;1.03;1.03;;;21.20;76.60;;;;;;5089048;28;43346;-70
2023/10/15 00:35:21;;;;;;;1.10;1.10;;;21.20;76.90;;;;;;5090989;28;43348;-70
2023/10/15 00:37:54;;;;;;;1.10;1.10;;;21.20;76.80;;;;;;5106107;28;46003;-70
2023/10/15 00:40:25;;;;;;;1.10;1.10;;;21.20;76.70;;;;;;5089417;28;43430;-69
2023/10/15 00:42:53;;;;;;;1.00;1.00;;;21.20;76.80;;;;;;5088703;28;43402;-69
2023/10/15 00:45:22;;;;;;;1.17;1.10;;;21.10;76.80;;;;;;5086240;28;44752;-68
2023/10/15 00:48:01;;;;;;;1.07;1.07;;;21.10;77.00;;;;;;5086277;28;43602;-69
2023/10/15 00:50:31;;;;;;;1.03;1.03;;;21.10;77.70;;;;;;5087336;28;43407;-70
2023/10/15 00:52:59;;;;;;;0.90;0.90;;;21.10;77.00;;;;;;5105448;28;43497;-68
2023/10/15 00:55:29;;;;;;;1.20;1.20;;;21.10;77.00;;;;;;5105569;28;43391;-69
2023/10/15 00:57:57;;;;;;;0.90;0.90;;;21.10;77.00;;;;;;5087428;28;45363;-69
2023/10/15 01:00:47;;;;;;;1.10;1.10;;;21.00;77.20;;;;;;5087794;28;44710;-68
2023/10/15 01:03:17;;;;;;;1.10;1.10;;;21.00;77.20;;;;;;5088210;28;43974;-69
2023/10/15 01:05:53;;;;;;;1.20;1.20;;;21.20;77.00;;;;;;5088141;28;43446;-69
2023/10/15 01:08:32;;;;;;;1.20;1.20;;;21.30;76.40;;;;;;5088144;28;45272;-70
2023/10/15 01:11:15;;;;;;;1.03;1.03;;;21.50;75.90;;;;;;5087748;28;44742;-69
2023/10/15 01:13:42;;;;;;;1.23;1.03;;;21.50;75.40;;;;;;5087399;28;43318;-68
2023/10/15 01:16:13;;;;;;;1.00;1.00;;;21.50;75.30;;;;;;5089403;28;43422;-69
2023/10/15 01:18:41;;;;;;;1.00;1.00;;;21.50;75.50;;;;;;5088334;28;43891;-69
2023/10/15 01:21:14;;;;;;;1.10;1.10;;;21.40;75.70;;;;;;5101919;28;44734;-69
2023/10/15 01:23:58;;;;;;;1.10;1.10;;;21.30;76.10;;;;;;5087340;28;43351;-69
2023/10/15 01:26:34;;;;;;;0.93;0.93;;;21.30;76.10;;;;;;5089005;28;43468;-70
2023/10/15 01:29:05;;;;;;;1.00;1.00;;;21.20;76.20;;;;;;5088193;28;45376;-68
2023/10/15 01:31:43;;;;;;;1.00;1.00;;;21.20;76.30;;;;;;5086429;28;44740;-69
2023/10/15 01:34:12;;;;;;;1.03;1.03;;;21.20;76.80;;;;;;5081960;28;43427;-66
2023/10/15 01:36:41;;;;;;;1.20;1.20;;;21.20;76.70;;;;;;5070039;28;43423;-68
2023/10/15 01:39:12;;;;;;;1.10;1.10;;;21.10;76.60;;;;;;5072410;28;43700;-65
2023/10/15 01:41:42;;;;;;;1.20;1.20;;;21.10;76.70;;;;;;5066588;28;45046;-64
2023/10/15 01:44:18;;;;;;;1.10;1.00;;;21.10;76.90;;;;;;5069207;28;43613;-67
2023/10/15 01:46:48;;;;;;;1.23;1.20;;;21.10;77.20;;;;;;5070893;28;43344;-66
2023/10/15 01:49:31;;;;;;;1.00;1.00;;;21.10;76.90;;;;;;5067794;28;43912;-68
2023/10/15 01:52:05;;;;;;;1.10;1.10;;;21.20;76.50;;;;;;5068557;28;43404;-69
2023/10/15 01:54:34;;;;;;;1.00;1.00;;;21.30;76.20;;;;;;5070710;28;43434;-67
2023/10/15 01:57:06;;;;;;;0.90;0.90;;;21.30;76.20;;;;;;5086383;28;44087;-66
2023/10/15 01:59:45;;;;;;;1.10;1.10;;;21.30;76.40;;;;;;5068636;28;45970;-66
2023/10/15 02:02:14;;;;;;;1.10;1.10;;;21.20;76.40;;;;;;5069182;28;43931;-66
2023/10/15 02:04:44;;;;;;;1.20;1.20;;;21.20;76.40;;;;;;5069979;28;43475;-66
2023/10/15 02:07:15;;;;;;;1.00;1.00;;;21.20;76.40;;;;;;5069916;28;43997;-67
2023/10/15 02:09:44;;;;;;;1.03;1.03;;;21.20;76.60;;;;;;5068557;28;45689;-66
2023/10/15 02:12:18;;;;;;;0.83;0.83;;;21.10;76.70;;;;;;5065854;28;44729;-66
2023/10/15 02:14:47;;;;;;;1.00;1.00;;;21.10;76.80;;;;;;5085770;28;43478;-66
2023/10/15 02:17:18;;;;;;;1.00;1.00;;;21.10;76.70;;;;;;5069584;28;43449;-66
2023/10/15 02:19:48;;;;;;;1.00;1.00;;;21.10;77.40;;;;;;5069346;28;45264;-66
2023/10/15 02:22:16;;;;;;;1.00;1.00;;;21.00;76.70;;;;;;5069212;28;44988;-67
2023/10/15 02:24:47;;;;;;;0.90;0.90;;;21.00;77.10;;;;;;5068670;28;43462;-70
2023/10/15 02:27:23;;;;;;;0.87;0.87;;;21.00;77.10;;;;;;5080569;28;44621;-69
2023/10/15 02:29:51;;;;;;;1.00;1.00;;;21.10;76.70;;;;;;5064547;28;46651;-70
2023/10/15 02:32:28;;;;;;;1.00;1.00;;;21.30;76.20;;;;;;5065177;28;44695;-70
2023/10/15 02:34:57;;;;;;;1.20;1.20;;;21.40;75.70;;;;;;5065021;28;43478;-69
2023/10/15 02:37:27;;;;;;;1.00;1.00;;;21.50;75.60;;;;;;5064924;28;43424;-69
2023/10/15 02:39:56;;;;;;;1.00;1.00;;;21.40;75.40;;;;;;5067302;28;44073;-69
2023/10/15 02:42:31;;;;;;;0.90;0.90;;;21.30;75.70;;;;;;5060017;28;45017;-69
2023/10/15 02:45:00;;;;;;;1.10;1.10;;;21.30;76.00;;;;;;5095896;28;43742;-68
2023/10/15 02:47:40;;;;;;;1.10;1.10;;;21.20;76.30;;;;;;5085751;28;43637;-69
2023/10/15 02:50:15;;;;;;;0.83;0.83;;;21.20;76.40;;;;;;5083649;28;45950;-69
2023/10/15 02:52:44;;;;;;;0.90;0.90;;;21.10;76.30;;;;;;5086895;28;45057;-70
2023/10/15 02:55:26;;;;;;;1.33;1.07;;;21.10;76.50;;;;;;5103829;28;43417;-70
2023/10/15 02:58:00;;;;;;;0.90;0.90;;;21.00;76.80;;;;;;5085173;28;43430;-69
2023/10/15 03:00:32;;;;;;;0.97;0.97;;;21.10;76.90;;;;;;5087029;28;43606;-69
2023/10/15 03:03:07;;;;;;;1.30;1.30;;;21.10;76.90;;;;;;5086443;28;44986;-69
2023/10/15 03:05:39;;;;;;;0.90;0.90;;;21.00;76.80;;;;;;5085564;28;43447;-69
2023/10/15 03:08:07;;;;;;;0.93;0.93;;;21.00;76.90;;;;;;5084409;28;43426;-70
2023/10/15 03:10:46;;;;;;;1.00;1.00;;;21.00;77.20;;;;;;5087233;28;44128;-70
2023/10/15 03:13:18;;;;;;;1.20;1.10;;;20.90;77.00;;;;;;5088228;28;43449;-70
2023/10/15 03:15:48;;;;;;;0.97;0.97;;;21.00;77.00;;;;;;5089449;28;43442;-70
2023/10/15 03:18:23;;;;;;;0.97;0.97;;;21.00;77.00;;;;;;5089744;28;43441;-70
2023/10/15 03:21:08;;;;;;;0.90;0.90;;;20.90;77.00;;;;;;5090230;28;46147;-70
2023/10/15 03:23:39;;;;;;;0.93;0.93;;;20.90;77.30;;;;;;5106560;28;44804;-70
2023/10/15 03:26:08;;;;;;;0.90;0.90;;;21.00;77.20;;;;;;5106747;28;43371;-70
2023/10/15 03:28:44;;;;;;;0.87;0.87;;;21.10;76.70;;;;;;5089924;28;43458;-70
2023/10/15 03:31:16;;;;;;;0.93;0.93;;;21.20;76.10;;;;;;5090278;28;43618;-69
2023/10/15 03:36:27;;;;;;;1.30;1.20;;;21.40;75.40;;;;;;5104087;28;43505;-70
2023/10/15 03:38:57;;;;;;;0.80;0.80;;;21.40;75.40;;;;;;5090135;28;43572;-70
2023/10/15 03:41:29;;;;;;;0.80;0.80;;;21.30;75.60;;;;;;5084890;28;43610;-69
2023/10/15 03:44:03;;;;;;;1.10;1.10;;;21.20;76.70;;;;;;5089812;28;43386;-70
2023/10/15 03:46:34;;;;;;;0.80;0.80;;;21.20;76.00;;;;;;5079797;28;43390;-69
2023/10/15 03:49:07;;;;;;;1.07;1.07;;;21.20;76.10;;;;;;5091420;28;43473;-69
2023/10/15 03:51:40;;;;;;;0.90;0.90;;;21.20;76.20;;;;;;5089698;28;46093;-69
2023/10/15 03:54:13;;;;;;;1.00;1.00;;;21.10;76.30;;;;;;5080411;28;43378;-69
2023/10/15 03:56:43;;;;;;;1.10;1.10;;;21.10;77.40;;;;;;5068877;28;43533;-69
2023/10/15 03:59:12;;;;;;;1.10;1.10;;;21.10;76.70;;;;;;5069109;28;43445;-69
2023/10/15 04:01:46;;;;;;;0.90;0.90;;;21.10;76.60;;;;;;5069006;28;43595;-69
2023/10/15 04:04:16;;;;;;;0.80;0.80;;;21.10;76.60;;;;;;5065966;28;43451;-69
2023/10/15 04:06:45;;;;;;;0.90;0.90;;;21.10;76.70;;;;;;5068875;28;43367;-70
2023/10/15 04:09:15;;;;;;;1.10;1.10;;;21.00;76.90;;;;;;5069216;28;44087;-70
2023/10/15 04:11:43;;;;;;;1.00;1.00;;;21.00;77.00;;;;;;5067585;28;45683;-70
2023/10/15 04:14:18;;;;;;;0.80;0.80;;;21.10;76.80;;;;;;5068685;28;43493;-69
2023/10/15 04:16:46;;;;;;;1.00;1.00;;;21.20;76.30;;;;;;5066431;28;43907;-70
2023/10/15 04:19:17;;;;;;;0.90;0.90;;;21.30;75.70;;;;;;5069132;28;43412;-70
2023/10/15 04:21:46;;;;;;;0.90;0.90;;;21.40;75.30;;;;;;5067957;28;45113;-70
2023/10/15 04:24:18;;;;;;;0.90;0.90;;;21.40;75.20;;;;;;5068332;28;44567;-70
2023/10/15 04:26:48;;;;;;;0.87;0.87;;;21.40;75.40;;;;;;5067168;28;43414;-69
2023/10/15 04:29:18;;;;;;;1.00;1.00;;;21.30;75.60;;;;;;5067635;28;43439;-69
2023/10/15 04:31:52;;;;;;;0.97;0.97;;;21.20;76.10;;;;;;5065332;28;43603;-69
2023/10/15 04:34:21;;;;;;;0.83;0.83;;;21.20;76.00;;;;;;5066109;28;43472;-71
2023/10/15 04:36:49;;;;;;;0.90;0.90;;;21.20;76.20;;;;;;5063112;28;44055;-72
2023/10/15 04:39:21;;;;;;;1.00;1.00;;;21.10;76.20;;;;;;5068088;28;43583;-70
2023/10/15 04:42:13;;;;;;;0.80;0.80;;;21.10;76.40;;;;;;5067184;28;43678;-69
2023/10/15 04:44:43;;;;;;;0.87;0.87;;;21.00;76.60;;;;;;5068521;28;43408;-71
2023/10/15 04:47:12;;;;;;;0.83;0.83;;;21.00;76.60;;;;;;5068587;28;43426;-71
2023/10/15 04:49:40;;;;;;;0.80;0.80;;;21.00;76.50;;;;;;5068291;28;43444;-70
2023/10/15 04:52:14;;;;;;;0.77;0.77;;;21.00;76.60;;;;;;5068341;28;43835;-72
2023/10/15 04:54:43;;;;;;;1.00;1.00;;;21.00;76.90;;;;;;5068349;28;43415;-72
2023/10/15 04:57:11;;;;;;;1.00;1.00;;;21.00;76.90;;;;;;5068283;28;43854;-71
2023/10/15 04:59:39;;;;;;;0.90;0.90;;;21.10;76.60;;;;;;5068222;28;43751;-71
2023/10/15 05:02:09;;;;;;;0.80;0.80;;;21.20;76.10;;;;;;5067183;28;43607;-71
2023/10/15 05:04:37;;;;;;;0.77;0.77;;;21.30;75.60;;;;;;5077786;28;43791;-70
2023/10/15 05:07:05;;;;;;;0.97;0.97;;;21.30;75.30;;;;;;5089332;28;43439;-70
2023/10/15 05:09:39;;;;;;;0.80;0.80;;;21.30;75.40;;;;;;5090175;28;43481;-70
2023/10/15 05:12:08;;;;;;;1.00;1.00;;;21.30;75.70;;;;;;5089806;28;43866;-70
2023/10/15 05:14:36;;;;;;;0.80;0.80;;;21.20;75.90;;;;;;5089462;28;43418;-70
2023/10/15 05:17:04;;;;;;;0.90;0.90;;;21.20;76.20;;;;;;5089313;28;43893;-70
2023/10/15 05:19:33;;;;;;;1.00;1.00;;;21.10;76.20;;;;;;5088698;28;43459;-70
2023/10/15 05:22:01;;;;;;;0.70;0.70;;;21.10;76.30;;;;;;5088712;28;43934;-69
2023/10/15 05:24:30;;;;;;;0.90;0.90;;;21.00;76.30;;;;;;5087896;28;44765;-69
2023/10/15 05:26:58;;;;;;;0.90;0.90;;;21.00;76.60;;;;;;5089494;28;43517;-69
2023/10/15 05:29:27;;;;;;;0.80;0.80;;;21.00;76.70;;;;;;5099777;28;43841;-69
2023/10/15 05:31:57;;;;;;;1.00;1.00;;;21.00;76.70;;;;;;5089068;28;43692;-69
2023/10/15 05:34:25;;;;;;;0.97;0.97;;;21.00;76.60;;;;;;5086607;28;43471;-69
2023/10/15 05:36:54;;;;;;;0.90;0.90;;;21.00;76.70;;;;;;5088161;28;43457;-69
2023/10/15 05:39:24;;;;;;;0.70;0.70;;;20.90;76.90;;;;;;5089029;28;43481;-69
2023/10/15 05:41:52;;;;;;;1.00;1.00;;;20.90;76.90;;;;;;5086793;28;43980;-71
2023/10/15 05:44:20;;;;;;;0.90;0.90;;;21.00;76.60;;;;;;5087875;28;43358;-70
2023/10/15 05:46:48;;;;;;;0.80;0.80;;;21.20;76.20;;;;;;5080197;28;43364;-70
2023/10/15 05:49:16;;;;;;;0.80;0.80;;;21.30;75.60;;;;;;5088078;28;43467;-70
2023/10/15 05:51:44;;;;;;;0.80;0.80;;;21.30;75.20;;;;;;5087848;28;43610;-70
2023/10/15 05:54:14;;;;;;;1.00;1.00;;;21.40;75.20;;;;;;5081652;28;43398;-72
2023/10/15 05:56:42;;;;;;;0.90;0.90;;;21.30;75.30;;;;;;5066688;28;43460;-70
2023/10/15 05:59:10;;;;;;;0.70;0.70;;;21.20;75.60;;;;;;5066962;28;43439;-71
2023/10/15 06:01:38;;;;;;;1.00;1.00;;;21.20;76.10;;;;;;5066037;28;43692;-72
2023/10/15 06:04:06;;;;;;;0.80;0.80;;;21.10;76.10;;;;;;5082364;28;43735;-71
2023/10/15 06:06:36;;;;;;;0.90;0.90;;;21.10;76.10;;;;;;5067686;28;43418;-72
2023/10/15 06:09:05;;;;;;;0.70;0.70;;;21.10;76.20;;;;;;5067720;28;43496;-72
2023/10/15 06:11:35;;;;;;;0.90;0.90;;;21.00;76.20;;;;;;5067002;28;44066;-72
2023/10/15 06:14:04;;;;;;;0.70;0.70;;;21.00;76.70;;;;;;5068538;28;43457;-71
2023/10/15 06:16:33;;;;;;;1.00;1.00;;;21.00;76.60;;;;;;5066261;28;43969;-72
2023/10/15 06:19:01;;;;;;;0.73;0.73;;;21.10;76.10;;;;;;5067601;28;43421;-71
2023/10/15 06:21:29;;;;;;;0.80;0.80;;;21.20;75.90;;;;;;5065109;28;43615;-71
2023/10/15 06:23:57;;;;;;;0.93;0.93;;;21.20;75.80;;;;;;5061039;28;44805;-72
2023/10/15 06:26:25;;;;;;;0.90;0.90;;;21.10;75.90;;;;;;5067295;28;43778;-72
2023/10/15 06:28:54;;;;;;;0.90;0.90;;;21.10;76.00;;;;;;5067556;28;44080;-72
2023/10/15 06:31:23;;;;;;;0.73;0.73;;;21.10;76.00;;;;;;5066632;28;44066;-72
2023/10/15 06:33:51;;;;;;;1.00;1.00;;;21.10;76.00;;;;;;5067275;28;43463;-72
2023/10/15 06:36:19;;;;;;;1.00;1.00;;;21.10;76.10;;;;;;5067535;28;43764;-71
2023/10/15 06:38:47;;;;;;;0.90;0.90;;;21.00;76.40;;;;;;5067759;28;43462;-72
2023/10/15 06:41:15;;;;;;;0.90;0.90;;;21.00;76.50;;;;;;5065957;28;43555;-71
2023/10/15 06:43:43;;;;;;;0.83;0.83;;;21.00;76.50;;;;;;5066859;28;43439;-72
2023/10/15 06:46:13;;;;;;;0.93;0.93;;;20.90;76.40;;;;;;5070648;28;44076;-72
2023/10/15 06:48:41;;;;;;;1.00;1.00;;;20.90;76.50;;;;;;5070260;28;43511;-72
2023/10/15 06:51:10;;;;;;;0.97;0.97;;;20.90;76.90;;;;;;5070058;28;44069;-72
2023/10/15 06:53:38;;;;;;;1.07;1.07;;;20.90;76.80;;;;;;5070715;28;43437;-72
2023/10/15 06:56:06;;;;;;;1.20;1.20;;;21.00;76.60;;;;;;5070159;28;43429;-71
2023/10/15 06:58:35;;;;;;;0.90;0.90;;;21.10;76.10;;;;;;5069964;28;43834;-71
2023/10/15 07:01:06;;;;;;;1.13;1.13;;;21.10;75.80;;;;;;5069055;28;45959;-72
2023/10/15 07:03:38;;;;;;;1.10;1.10;;;21.20;75.90;;;;;;5069870;28;43445;-67
2023/10/15 07:06:08;;;;;;;1.10;1.10;;;21.10;76.10;;;;;;5090244;28;43524;-70
2023/10/15 07:08:36;;;;;;;1.20;1.20;;;21.10;76.00;;;;;;5089955;28;43447;-70
2023/10/15 07:11:05;;;;;;;1.00;1.00;;;21.10;76.00;;;;;;5090115;28;44040;-70
2023/10/15 07:13:34;;;;;;;1.10;1.10;;;21.10;76.10;;;;;;5089587;28;43407;-70
2023/10/15 07:16:02;;;;;;;1.20;1.20;;;21.00;76.20;;;;;;5090560;28;43518;-70
2023/10/15 07:18:32;;;;;;;1.30;1.30;;;20.90;76.40;;;;;;5089558;28;43558;-70
2023/10/15 07:21:02;;;;;;;1.20;1.20;;;20.90;76.60;;;;;;5089282;28;43611;-69
2023/10/15 07:23:30;;;;;;;1.20;1.20;;;20.90;76.50;;;;;;5088959;28;43520;-69
2023/10/15 07:25:58;;;;;;;1.20;1.20;;;20.90;76.50;;;;;;5070280;28;43607;-70
2023/10/15 07:28:26;;;;;;;1.23;1.23;;;20.90;76.60;;;;;;5069855;28;43467;-70
2023/10/15 07:30:55;;;;;;;1.50;1.40;;;20.90;76.90;;;;;;5070671;28;43631;-69
2023/10/15 07:33:23;;;;;;;1.20;1.20;;;20.90;77.00;;;;;;5069503;28;43462;-71
2023/10/15 07:35:51;;;;;;;1.20;1.20;;;20.80;76.70;;;;;;5070154;28;43450;-70
2023/10/15 07:38:21;;;;;;;1.23;1.23;;;20.90;76.80;;;;;;5068265;28;43450;-70
2023/10/15 07:40:49;;;;;;;1.40;1.40;;;20.80;76.70;;;;;;5069123;28;43619;-70
2023/10/15 07:43:17;;;;;;;1.30;1.30;;;20.80;77.00;;;;;;5069765;28;43412;-70
2023/10/15 07:45:45;;;;;;;1.33;1.33;;;20.80;77.00;;;;;;5068815;28;44134;-70
2023/10/15 07:48:13;;;;;;;1.50;1.50;;;20.90;76.70;;;;;;5067724;28;43471;-70
2023/10/15 07:50:43;;;;;;;1.60;1.60;;;21.00;76.10;;;;;;5068895;28;43977;-70
2023/10/15 07:53:11;;;;;;;1.30;1.30;;;21.20;75.70;;;;;;5068148;28;43470;-70
2023/10/15 07:55:41;;;;;;;1.40;1.40;;;21.20;75.30;;;;;;5069051;28;43425;-70
2023/10/15 07:58:09;;;;;;;1.50;1.50;;;21.30;75.30;;;;;;5065228;28;43398;-70
2023/10/15 08:00:37;;;;;;;1.30;1.30;;;21.20;75.50;;;;;;5068973;28;43871;-71
2023/10/15 08:03:07;;;;;;;1.40;1.40;;;21.10;75.70;;;;;;5063610;28;43359;-70
2023/10/15 08:05:36;;;;;;;1.23;1.23;;;21.00;76.00;;;;;;5067315;28;43534;-70
2023/10/15 08:08:05;;;;;;;1.40;1.40;;;21.00;76.10;;;;;;5068885;28;43794;-70
2023/10/15 08:10:34;;;;;;;1.50;1.50;;;21.00;76.10;;;;;;5068191;28;43716;-70
2023/10/15 08:13:06;;;;;;;1.40;1.40;;;21.00;76.20;;;;;;5063420;28;43617;-70
2023/10/15 08:15:35;;;;;;;1.57;1.57;;;20.90;76.30;;;;;;5080702;28;43433;-70
2023/10/15 08:18:04;;;;;;;1.23;1.23;;;20.90;76.60;;;;;;5087111;28;43556;-70
2023/10/15 08:20:32;;;;;;;1.50;1.50;;;20.80;76.70;;;;;;5085147;28;43842;-70
2023/10/15 08:23:01;;;;;;;1.60;1.60;;;20.90;76.80;;;;;;5090369;28;43572;-70
2023/10/15 08:25:31;;;;;;;1.30;1.30;;;20.90;76.70;;;;;;5086656;28;43457;-70
2023/10/15 08:28:01;;;;;;;1.40;1.40;;;20.90;76.90;;;;;;5090601;28;43430;-70
2023/10/15 08:30:31;;;;;;;1.40;1.40;;;20.80;77.00;;;;;;5089147;28;43907;-70
2023/10/15 08:32:59;;;;;;;1.37;1.37;;;20.80;77.00;;;;;;5090625;28;44091;-70
2023/10/15 08:35:27;;;;;;;1.50;1.50;;;20.90;76.60;;;;;;5075807;28;43461;-66
2023/10/15 08:37:59;;;;;;;1.20;1.20;;;21.00;76.20;;;;;;5073051;28;43435;-66
2023/10/15 08:40:29;;;;;;;1.50;1.50;;;21.20;75.70;;;;;;5073466;28;43668;-67
2023/10/15 08:43:00;;;;;;;1.30;1.30;;;21.20;75.40;;;;;;5073135;28;43431;-67
2023/10/15 08:45:28;;;;;;;1.20;1.20;;;21.20;75.40;;;;;;5072593;28;43434;-67
2023/10/15 08:48:01;;;;;;;1.20;1.20;;;21.20;75.70;;;;;;5069348;28;43535;-66
2023/10/15 08:50:29;;;;;;;1.50;1.50;;;21.10;75.90;;;;;;5069936;28;45677;-65
2023/10/15 08:52:57;;;;;;;1.53;1.53;;;21.00;76.20;;;;;;5071408;28;43417;-65
2023/10/15 08:55:25;;;;;;;1.43;1.43;;;21.00;76.20;;;;;;5071885;28;43441;-65
2023/10/15 08:57:56;;;;;;;1.40;1.40;;;20.90;76.20;;;;;;5072547;28;43348;-68
2023/10/15 09:00:28;;;;;;;1.40;1.40;;;20.90;76.40;;;;;;5072069;28;43611;-67
2023/10/15 09:03:02;;;;;;;1.50;1.50;;;20.90;76.70;;;;;;5070940;28;44783;-65
2023/10/15 09:05:33;;;;;;;1.60;1.60;;;20.90;76.80;;;;;;5071108;28;43446;-65
2023/10/15 09:08:06;;;;;;;1.20;1.20;;;20.80;76.70;;;;;;5072155;28;43868;-66
2023/10/15 09:10:35;;;;;;;1.30;1.30;;;20.90;76.80;;;;;;5070473;28;43611;-67
2023/10/15 09:13:04;;;;;;;1.40;1.40;;;20.80;76.70;;;;;;5065244;28;43440;-67
2023/10/15 09:15:32;;;;;;;1.60;1.50;;;20.80;76.90;;;;;;5070294;28;43455;-67
2023/10/15 09:18:02;;;;;;;1.30;1.30;;;20.80;76.80;;;;;;5069329;28;43461;-66
2023/10/15 09:20:33;;;;;;;1.50;1.50;;;20.90;76.40;;;;;;5066146;28;43606;-66
2023/10/15 09:23:01;;;;;;;1.40;1.40;;;21.00;75.70;;;;;;5065272;28;43466;-66
2023/10/15 09:25:31;;;;;;;1.47;1.47;;;21.10;75.30;;;;;;5068420;28;44026;-66
2023/10/15 09:27:59;;;;;;;1.30;1.30;;;21.20;75.20;;;;;;5072710;28;43431;-66
2023/10/15 09:30:30;;;;;;;1.40;1.40;;;21.10;74.60;;;;;;5071131;28;43912;-66
2023/10/15 09:32:58;;;;;;;1.60;1.60;;;21.10;74.70;;;;;;5071535;28;45290;-66
2023/10/15 09:35:28;;;;;;;14.23;2.90;;;21.00;73.70;;;;;;5073014;28;43363;-66
2023/10/15 09:37:57;;;;;;;22.53;2.63;;;20.90;73.20;;;;;;5072055;28;43443;-66
2023/10/15 09:40:30;;;;;;;28.77;3.60;;;20.90;74.00;;;;;;5072009;28;43711;-67
2023/10/15 09:42:59;;;;;;;16.73;2.70;;;20.90;74.80;;;;;;5070618;28;44953;-67
2023/10/15 09:45:30;;;;;;;29.37;3.50;;;20.80;75.10;;;;;;5080048;28;43452;-69
2023/10/15 09:47:59;;;;;;;35.20;4.17;;;20.90;75.40;;;;;;5085696;28;43505;-69
2023/10/15 09:50:31;;;;;;;41.07;3.93;;;20.90;75.90;;;;;;5090588;28;43845;-69
2023/10/15 09:53:01;;;;;;;22.67;3.53;;;20.90;75.70;;;;;;5090431;28;43398;-69
2023/10/15 09:55:31;;;;;;;19.80;4.00;;;20.90;75.90;;;;;;5090103;28;43709;-69
2023/10/15 09:58:04;;;;;;;32.20;4.20;;;20.80;75.90;;;;;;5089737;28;43474;-69
2023/10/15 10:00:47;;;;;;;34.27;4.70;;;20.80;76.10;;;;;;5090531;28;43763;-69
2023/10/15 10:03:26;;;;;;;22.63;3.40;;;20.80;76.30;;;;;;5083594;28;45135;-69
2023/10/15 10:06:09;;;;;;;39.10;4.47;;;20.90;75.90;;;;;;5090048;28;43447;-69
2023/10/15 10:08:44;;;;;;;28.73;3.80;;;21.10;75.60;;;;;;5078338;28;43374;-69
2023/10/15 10:11:20;;;;;;;23.30;3.50;;;21.20;75.00;;;;;;5089704;28;43791;-69
2023/10/15 10:14:15;;;;;;;24.47;3.50;;;21.20;74.70;;;;;;5089712;28;43324;-69
2023/10/15 10:16:43;;;;;;;13.67;2.90;;;21.20;75.00;;;;;;5089407;28;43465;-69
2023/10/15 10:19:11;;;;;;;17.20;3.03;;;21.20;75.30;;;;;;5089514;28;43447;-70
2023/10/15 10:21:42;;;;;;;21.47;3.47;;;21.10;75.50;;;;;;5090034;28;43852;-69
2023/10/15 10:24:12;;;;;;;17.50;3.00;;;21.00;75.80;;;;;;5089529;28;43731;-69
2023/10/15 10:26:41;;;;;;;18.43;2.90;;;21.00;75.80;;;;;;5088088;28;43604;-69
2023/10/15 10:29:09;;;;;;;11.67;3.00;;;21.00;75.90;;;;;;5089144;28;43706;-69
2023/10/15 10:31:39;;;;;;;15.47;3.00;;;20.90;75.90;;;;;;5088556;28;43840;-69
2023/10/15 10:34:08;;;;;;;19.67;3.50;;;20.90;76.40;;;;;;5083020;28;43393;-70
2023/10/15 10:36:38;;;;;;;17.90;2.90;;;20.90;76.50;;;;;;5067644;28;43407;-71
2023/10/15 10:39:17;;;;;;;8.30;2.73;;;20.90;76.40;;;;;;5067377;28;43387;-71
2023/10/15 10:41:46;;;;;;;11.20;2.90;;;20.80;76.30;;;;;;5066622;28;43899;-70
2023/10/15 10:44:38;;;;;;;6.93;2.63;;;20.80;76.50;;;;;;5061701;28;44383;-71
2023/10/15 10:47:21;;;;;;;1.97;1.77;;;20.80;74.00;;;;;;5079641;28;43481;-73
2023/10/15 10:49:56;;;;;;;5.37;1.60;;;20.80;65.70;;;;;;5066542;28;43462;-72
2023/10/15 10:52:33;;;;;;;3.73;2.00;;;20.80;60.50;;;;;;5065521;28;43555;-72
2023/10/15 10:55:31;;;;;;;2.93;1.80;;;20.90;57.30;;;;;;5066761;28;43412;-71
2023/10/15 10:58:00;;;;;;;1.57;1.50;;;20.90;64.50;;;;;;5065636;28;44000;-70
2023/10/15 11:00:30;;;;;;;1.40;1.30;;;20.90;66.90;;;;;;5065627;28;43480;-70
2023/10/15 11:03:00;;;;;;;2.37;1.70;;;20.90;68.10;;;;;;5080173;27;44166;-70
2023/10/15 11:05:29;;;;;;;2.83;1.80;;;20.80;68.20;;;;;;5065323;28;43422;-70
2023/10/15 11:07:57;;;;;;;1.53;1.43;;;20.70;65.00;;;;;;5065539;28;43482;-70
2023/10/15 11:10:25;;;;;;;3.30;1.53;;;20.70;61.60;;;;;;5067904;28;43419;-70
2023/10/15 11:12:56;;;;;;;2.30;1.30;;;20.70;67.10;;;;;;5060955;28;43724;-70
2023/10/15 11:15:23;;;;;;;3.00;1.40;;;20.60;67.20;;;;;;5058009;28;43751;-71
2023/10/15 11:17:55;;;;;;;7.07;1.70;;;20.60;68.00;;;;;;5063460;28;43446;-70
2023/10/15 11:20:25;;;;;;;1.50;1.47;;;20.60;67.10;;;;;;5063490;28;44579;-70
2023/10/15 11:22:53;;;;;;;1.53;1.40;;;20.60;68.20;;;;;;5063247;28;43595;-70
2023/10/15 11:25:23;;;;;;;1.50;1.50;;;20.60;68.70;;;;;;5063081;28;43475;-70
2023/10/15 11:27:51;;;;;;;1.30;1.20;;;20.60;68.90;;;;;;5062108;28;43434;-70
2023/10/15 11:30:21;;;;;;;2.67;1.30;;;20.60;68.90;;;;;;5063954;28;43456;-70
2023/10/15 11:32:51;;;;;;;1.17;1.17;;;20.50;68.10;;;;;;5064143;28;43877;-70
2023/10/15 11:35:19;;;;;;;1.40;1.30;;;20.60;67.30;;;;;;5067200;28;43636;-70
2023/10/15 11:37:51;;;;;;;2.40;1.73;;;20.60;67.30;;;;;;5067190;28;43907;-70
2023/10/15 11:40:20;;;;;;;1.80;1.40;;;20.70;67.30;;;;;;5067045;28;43946;-70
2023/10/15 11:42:50;;;;;;;1.63;1.50;;;20.80;67.00;;;;;;5066861;28;43731;-70
2023/10/15 11:45:26;;;;;;;1.97;1.40;;;20.90;67.20;;;;;;5068919;28;43371;-67
2023/10/15 11:47:56;;;;;;;1.47;1.33;;;20.90;67.70;;;;;;5069568;28;43441;-67
2023/10/15 11:50:24;;;;;;;1.37;1.27;;;20.80;68.00;;;;;;5071440;28;43437;-67
2023/10/15 11:52:53;;;;;;;1.20;1.20;;;20.80;69.10;;;;;;5070128;28;44915;-67
2023/10/15 11:55:22;;;;;;;1.47;1.43;;;20.70;68.50;;;;;;5066946;28;44680;-68
2023/10/15 11:57:50;;;;;;;1.50;1.40;;;20.70;69.00;;;;;;5069096;28;43497;-67
2023/10/15 12:00:32;;;;;;;1.27;1.27;;;20.70;70.10;;;;;;5070520;28;44089;-67
2023/10/15 12:03:00;;;;;;;1.47;1.37;;;20.60;70.20;;;;;;5070963;28;44491;-67
2023/10/15 12:05:31;;;;;;;2.70;1.57;;;20.60;70.50;;;;;;5067006;28;43629;-71
2023/10/15 12:08:00;;;;;;;3.20;1.60;;;20.60;70.80;;;;;;5066395;28;43453;-70
2023/10/15 12:10:28;;;;;;;3.73;1.90;;;20.60;70.10;;;;;;5067139;28;43491;-70
2023/10/15 12:12:56;;;;;;;2.17;2.00;;;20.60;70.50;;;;;;5065832;28;43620;-70
2023/10/15 12:15:29;;;;;;;2.00;1.90;;;20.60;70.60;;;;;;5065045;28;45070;-70
2023/10/15 12:17:59;;;;;;;9.03;4.03;;;20.60;70.70;;;;;;5066237;28;44098;-70
2023/10/15 12:20:27;;;;;;;12.97;4.67;;;20.60;70.70;;;;;;5067019;28;44571;-70
2023/10/15 12:22:56;;;;;;;14.73;5.33;;;20.60;69.90;;;;;;5066226;28;43918;-71
2023/10/15 12:25:24;;;;;;;16.10;6.07;;;20.60;69.70;;;;;;5066241;28;43544;-70
2023/10/15 12:27:52;;;;;;;18.20;6.20;;;20.70;69.20;;;;;;5065156;28;43459;-71
2023/10/15 12:30:23;;;;;;;15.30;5.73;;;20.80;69.10;;;;;;5065459;28;43452;-70
2023/10/15 12:32:53;;;;;;;14.63;5.67;;;20.80;69.10;;;;;;5065156;28;44161;-70
2023/10/15 12:35:22;;;;;;;17.77;6.50;;;20.90;70.10;;;;;;5064905;28;43477;-70
2023/10/15 12:37:58;;;;;;;14.53;5.70;;;20.80;70.50;;;;;;5064493;28;43501;-70
2023/10/15 12:40:31;;;;;;;32.00;10.33;;;20.80;70.80;;;;;;5066286;28;43560;-70
2023/10/15 12:42:59;;;;;;;36.90;10.93;;;20.70;70.80;;;;;;5064890;28;43604;-70
2023/10/15 12:45:28;;;;;;;32.40;10.40;;;20.70;70.80;;;;;;5065682;28;43555;-69
2023/10/15 12:47:59;;;;;;;24.07;8.93;;;20.70;71.10;;;;;;5066452;28;43385;-71
2023/10/15 12:50:27;;;;;;;26.87;9.43;;;20.70;71.40;;;;;;5066620;28;43549;-71
2023/10/15 12:52:58;;;;;;;29.80;10.23;;;20.60;71.50;;;;;;5065643;28;43754;-71
2023/10/15 12:55:26;;;;;;;35.50;10.80;;;20.60;70.80;;;;;;5065563;28;43566;-70
2023/10/15 12:57:54;;;;;;;29.17;9.57;;;20.60;71.40;;;;;;5065822;28;43448;-70
2023/10/15 13:00:22;;;;;;;26.70;9.47;;;20.60;71.60;;;;;;5065855;28;43704;-71
2023/10/15 13:02:51;;;;;;;23.30;9.70;;;20.60;71.70;;;;;;5065635;28;43997;-71
2023/10/15 13:05:22;;;;;;;25.90;9.60;;;20.60;71.70;;;;;;5065224;28;43484;-70